Aranspass, Texas
Current Conditions -  °F | °C
As of 2:55 AM on Monday 20 Oct 2014 (Local Time) from KTFP Reporting Station
Scattered Clouds Scattered Clouds  
Wind Chill: 72°   Ceiling: Unl
Heat Index: 72°   Visibility: 10mi
Dew Point: 68°   Wind: 6mph
Humidity: 89%   Direction: 20°NNE
Pressure: 29.95"   Gusts: NA
Location:  27.9399°N, 97.1805°W
Report Text: KTFP 200755Z AUTO 02005KT 10SM SCT026 SCT034 SCT042 22/20 A2995 RMK AO2 T02210202
Loading
Personal Weather Stations






























Interactive Weather Map
Tropical Storm Tracking
New forecast layout! Learn more

10-Day Weather Forecast

Advertisements
Track Severe Weather on mobile